Time;durP1;ratioP1;P1;durP2;ratioP2;P2;SDS_P1;SDS_P2;PMS_P1;PMS_P2;Temp;Humidity;BMP_temperature;BMP_pressure;BME280_temperature;BME280_humidity;BME280_pressure;Samples;Min_cycle;Max_cycle;Signal;HPM_P1;HPM_P2
2024/03/08 00:01:55;;;;;;;15.67;11.87;;;;;;;;;;5135198;27;20269;-78
2024/03/08 00:04:23;;;;;;;18.33;12.60;;;;;;;;;;5135524;27;20287;-77
2024/03/08 00:06:50;;;;;;;18.30;11.80;;;;;;;;;;5135406;27;20198;-78
2024/03/08 00:09:17;;;;;;;19.00;12.30;;;;;;;;;;5135546;27;20193;-76
2024/03/08 00:11:45;;;;;;;18.40;12.30;;;;;;;;;;5135268;27;20678;-77
2024/03/08 00:14:12;;;;;;;17.07;12.50;;;;;;;;;;5135330;27;20232;-77
2024/03/08 00:16:43;;;;;;;18.43;12.17;;;;;;;;;;5135128;27;20264;-77
2024/03/08 00:19:12;;;;;;;15.60;11.17;;;;;;;;;;5135435;27;20248;-77
2024/03/08 00:21:39;;;;;;;16.30;11.80;;;;;;;;;;5134951;27;20229;-78
2024/03/08 00:24:06;;;;;;;17.77;12.13;;;;;;;;;;5123219;27;20285;-76
2024/03/08 00:26:34;;;;;;;19.13;12.30;;;;;;;;;;5114476;28;20232;-78
2024/03/08 00:29:01;;;;;;;17.33;12.23;;;;;;;;;;5114190;28;20190;-78
2024/03/08 00:31:30;;;;;;;17.90;12.47;;;;;;;;;;5114223;28;20225;-76
2024/03/08 00:33:57;;;;;;;19.13;12.90;;;;;;;;;;5114455;28;20622;-77
2024/03/08 00:36:26;;;;;;;18.03;12.93;;;;;;;;;;5113881;28;20637;-77
2024/03/08 00:38:53;;;;;;;18.90;12.33;;;;;;;;;;5114507;28;20289;-77
2024/03/08 00:41:20;;;;;;;19.17;12.57;;;;;;;;;;5114151;28;20288;-77
2024/03/08 00:43:49;;;;;;;20.13;12.53;;;;;;;;;;5113942;28;20266;-77
2024/03/08 00:46:17;;;;;;;19.33;12.37;;;;;;;;;;5114540;28;20266;-76
2024/03/08 00:48:44;;;;;;;16.70;11.87;;;;;;;;;;5114008;28;20235;-77
2024/03/08 00:51:11;;;;;;;16.90;12.40;;;;;;;;;;5113421;28;20284;-76
2024/03/08 00:53:40;;;;;;;18.50;12.47;;;;;;;;;;5113782;28;20308;-77
2024/03/08 00:56:09;;;;;;;19.40;12.77;;;;;;;;;;5114014;28;20251;-77
2024/03/08 00:58:37;;;;;;;17.53;11.90;;;;;;;;;;5113714;28;20201;-77
2024/03/08 01:01:05;;;;;;;17.00;11.70;;;;;;;;;;5114103;28;20222;-78
2024/03/08 01:03:34;;;;;;;17.97;11.57;;;;;;;;;;5114098;28;20221;-78
2024/03/08 01:06:01;;;;;;;16.43;11.47;;;;;;;;;;5113022;28;20198;-79
2024/03/08 01:08:28;;;;;;;18.13;11.77;;;;;;;;;;5113773;28;20194;-78
2024/03/08 01:10:57;;;;;;;17.10;11.87;;;;;;;;;;5113862;28;20232;-78
2024/03/08 01:13:24;;;;;;;17.30;11.57;;;;;;;;;;5127091;27;20201;-80
2024/03/08 01:15:51;;;;;;;15.83;11.30;;;;;;;;;;5133842;27;20275;-77
2024/03/08 01:18:19;;;;;;;16.50;11.17;;;;;;;;;;5134682;27;20228;-78
2024/03/08 01:20:46;;;;;;;16.80;11.40;;;;;;;;;;5134257;27;20389;-77
2024/03/08 01:23:14;;;;;;;16.13;10.90;;;;;;;;;;5133545;27;20648;-77
2024/03/08 01:25:43;;;;;;;16.10;10.60;;;;;;;;;;5134206;27;20217;-78
2024/03/08 01:28:12;;;;;;;15.97;10.93;;;;;;;;;;5133905;27;20197;-77
2024/03/08 01:30:40;;;;;;;14.90;10.47;;;;;;;;;;5133998;27;20296;-77
2024/03/08 01:33:07;;;;;;;14.97;10.63;;;;;;;;;;5133660;27;20653;-78
2024/03/08 01:35:34;;;;;;;13.43;10.07;;;;;;;;;;5133394;27;20321;-77
2024/03/08 01:38:01;;;;;;;17.10;10.53;;;;;;;;;;5133803;27;20225;-77
2024/03/08 01:40:29;;;;;;;15.87;10.97;;;;;;;;;;5134159;27;20232;-78
2024/03/08 01:42:56;;;;;;;15.07;10.13;;;;;;;;;;5133431;27;20192;-78
2024/03/08 01:45:25;;;;;;;16.93;10.73;;;;;;;;;;5133586;27;20367;-78
2024/03/08 01:47:52;;;;;;;17.20;10.53;;;;;;;;;;5133168;27;20224;-78
2024/03/08 01:50:19;;;;;;;15.10;10.53;;;;;;;;;;5133153;27;20228;-78
2024/03/08 01:52:46;;;;;;;15.83;10.20;;;;;;;;;;5133325;27;20201;-78
2024/03/08 01:55:15;;;;;;;16.33;10.67;;;;;;;;;;5133418;27;20229;-79
2024/03/08 01:57:43;;;;;;;16.80;10.60;;;;;;;;;;5133228;27;20193;-78
2024/03/08 02:00:11;;;;;;;14.77;9.90;;;;;;;;;;5133253;27;20197;-78
2024/03/08 02:02:42;;;;;;;18.70;11.00;;;;;;;;;;5123368;27;20190;-78
2024/03/08 02:05:09;;;;;;;15.27;10.20;;;;;;;;;;5112024;28;20198;-78
2024/03/08 02:07:36;;;;;;;16.40;11.03;;;;;;;;;;5112813;28;20630;-77
2024/03/08 02:10:03;;;;;;;14.73;10.67;;;;;;;;;;5112516;28;20201;-79
2024/03/08 02:12:31;;;;;;;16.27;10.97;;;;;;;;;;5118431;27;20718;-78
2024/03/08 02:14:58;;;;;;;16.47;10.83;;;;;;;;;;5132862;27;20976;-78
2024/03/08 02:17:25;;;;;;;14.90;10.53;;;;;;;;;;5132585;27;20648;-77
2024/03/08 02:19:54;;;;;;;14.60;10.53;;;;;;;;;;5132802;27;20280;-77
2024/03/08 02:22:22;;;;;;;15.27;10.80;;;;;;;;;;5132119;27;20660;-79
2024/03/08 02:24:49;;;;;;;14.63;10.37;;;;;;;;;;5125136;27;20732;-77
2024/03/08 02:27:17;;;;;;;16.47;10.27;;;;;;;;;;5102329;28;20245;-78
2024/03/08 02:29:44;;;;;;;16.87;10.30;;;;;;;;;;5092095;28;20271;-77
2024/03/08 02:32:11;;;;;;;17.53;11.57;;;;;;;;;;5091736;28;20271;-78
2024/03/08 02:34:39;;;;;;;15.83;10.83;;;;;;;;;;5091654;28;20315;-78
2024/03/08 02:37:06;;;;;;;14.97;10.17;;;;;;;;;;5091446;28;20198;-77
2024/03/08 02:39:35;;;;;;;15.00;10.40;;;;;;;;;;5092138;28;20650;-78
2024/03/08 02:42:02;;;;;;;16.47;10.93;;;;;;;;;;5091500;28;20194;-78
2024/03/08 02:44:30;;;;;;;16.37;11.20;;;;;;;;;;5091382;28;20237;-77
2024/03/08 02:46:57;;;;;;;16.83;10.77;;;;;;;;;;5091231;28;20719;-76
2024/03/08 02:49:24;;;;;;;17.67;11.40;;;;;;;;;;5091521;28;20751;-77
2024/03/08 02:51:51;;;;;;;15.17;10.93;;;;;;;;;;5091373;28;20226;-78
2024/03/08 02:54:19;;;;;;;17.23;11.27;;;;;;;;;;5091716;28;20811;-79
2024/03/08 02:56:50;;;;;;;17.00;10.73;;;;;;;;;;5090884;28;20630;-78
2024/03/08 02:59:18;;;;;;;18.33;10.97;;;;;;;;;;5091692;28;20224;-78
2024/03/08 03:01:45;;;;;;;17.40;11.67;;;;;;;;;;5090793;28;20198;-77
2024/03/08 03:04:13;;;;;;;16.17;11.20;;;;;;;;;;5091457;28;20263;-77
2024/03/08 03:06:40;;;;;;;15.43;10.47;;;;;;;;;;5091155;28;20194;-78
2024/03/08 03:09:07;;;;;;;17.57;11.27;;;;;;;;;;5091717;28;20768;-79
2024/03/08 03:11:35;;;;;;;17.00;11.17;;;;;;;;;;5091379;28;20702;-78
2024/03/08 03:14:04;;;;;;;17.13;11.47;;;;;;;;;;5128865;28;20269;-77
2024/03/08 03:16:31;;;;;;;16.83;11.33;;;;;;;;;;5131523;28;20221;-77
2024/03/08 03:19:01;;;;;;;18.33;11.77;;;;;;;;;;5132359;28;20197;-78
2024/03/08 03:21:31;;;;;;;17.30;11.47;;;;;;;;;;5132194;28;20624;-78
2024/03/08 03:23:59;;;;;;;18.43;11.23;;;;;;;;;;5131965;27;20242;-79
2024/03/08 03:26:26;;;;;;;17.23;11.67;;;;;;;;;;5131976;28;20913;-78
2024/03/08 03:28:53;;;;;;;18.97;12.53;;;;;;;;;;5131746;28;20607;-77
2024/03/08 03:31:23;;;;;;;18.67;12.23;;;;;;;;;;5131975;28;20204;-78
2024/03/08 03:33:51;;;;;;;18.43;12.33;;;;;;;;;;5132522;27;20619;-77
2024/03/08 03:36:18;;;;;;;19.63;12.73;;;;;;;;;;5136084;27;20238;-78
2024/03/08 03:38:46;;;;;;;17.40;12.20;;;;;;;;;;5136212;27;20232;-78
2024/03/08 03:41:14;;;;;;;20.47;12.33;;;;;;;;;;5136234;27;20196;-77
2024/03/08 03:43:41;;;;;;;19.50;12.50;;;;;;;;;;5135641;27;20696;-78
2024/03/08 03:46:10;;;;;;;19.80;13.30;;;;;;;;;;5135618;27;20243;-78
2024/03/08 03:48:38;;;;;;;21.80;13.40;;;;;;;;;;5135965;27;20296;-77
2024/03/08 03:51:07;;;;;;;21.57;13.73;;;;;;;;;;5135930;27;20637;-76
2024/03/08 03:53:34;;;;;;;21.70;13.40;;;;;;;;;;5135549;27;20877;-78
2024/03/08 03:56:01;;;;;;;23.13;13.33;;;;;;;;;;5135501;27;20225;-77
2024/03/08 03:58:28;;;;;;;21.23;12.97;;;;;;;;;;5135189;27;20235;-78
2024/03/08 04:00:56;;;;;;;21.40;13.57;;;;;;;;;;5135570;27;20674;-77
2024/03/08 04:03:23;;;;;;;20.63;13.37;;;;;;;;;;5135418;27;20250;-78
2024/03/08 04:05:52;;;;;;;22.83;14.37;;;;;;;;;;5135521;27;20251;-78
2024/03/08 04:08:19;;;;;;;22.17;14.00;;;;;;;;;;5135606;27;20225;-79
2024/03/08 04:10:46;;;;;;;20.87;13.80;;;;;;;;;;5135068;27;20272;-77
2024/03/08 04:13:15;;;;;;;23.33;14.50;;;;;;;;;;5135154;27;20221;-78
2024/03/08 04:15:43;;;;;;;22.23;14.43;;;;;;;;;;5134739;27;20220;-78
2024/03/08 04:18:11;;;;;;;22.13;14.60;;;;;;;;;;5135176;27;20212;-78
2024/03/08 04:20:39;;;;;;;23.47;14.53;;;;;;;;;;5135475;27;20283;-79
2024/03/08 04:23:08;;;;;;;22.60;14.50;;;;;;;;;;5134868;27;20193;-78
2024/03/08 04:25:36;;;;;;;24.93;15.50;;;;;;;;;;5135049;27;20193;-77
2024/03/08 04:28:03;;;;;;;25.97;15.27;;;;;;;;;;5134519;27;20250;-78
2024/03/08 04:30:30;;;;;;;24.33;15.83;;;;;;;;;;5134876;27;20284;-77
2024/03/08 04:32:57;;;;;;;29.00;16.93;;;;;;;;;;5134959;27;20280;-78
2024/03/08 04:35:25;;;;;;;25.07;16.47;;;;;;;;;;5134801;27;20223;-77
2024/03/08 04:37:52;;;;;;;25.20;15.27;;;;;;;;;;5135033;27;20200;-78
2024/03/08 04:40:21;;;;;;;26.43;16.40;;;;;;;;;;5134873;27;20237;-77
2024/03/08 04:42:50;;;;;;;25.97;16.07;;;;;;;;;;5134275;27;20232;-78
2024/03/08 04:45:18;;;;;;;25.67;16.47;;;;;;;;;;5134014;27;20200;-77
2024/03/08 04:47:45;;;;;;;27.13;16.77;;;;;;;;;;5134860;27;20193;-77
2024/03/08 04:50:12;;;;;;;25.80;16.27;;;;;;;;;;5134773;27;20272;-78
2024/03/08 04:52:40;;;;;;;26.17;16.70;;;;;;;;;;5134621;27;20201;-77
2024/03/08 04:55:07;;;;;;;26.80;16.67;;;;;;;;;;5134218;27;20790;-78
2024/03/08 04:57:36;;;;;;;27.67;17.33;;;;;;;;;;5134256;27;20239;-77
2024/03/08 05:00:10;;;;;;;26.00;16.40;;;;;;;;;;5134520;27;20236;-78
2024/03/08 05:02:38;;;;;;;27.93;17.67;;;;;;;;;;5134714;27;20201;-78
2024/03/08 05:05:07;;;;;;;27.33;16.37;;;;;;;;;;5134271;27;20216;-78
2024/03/08 05:07:35;;;;;;;27.27;16.60;;;;;;;;;;5134348;27;20655;-77
2024/03/08 05:10:02;;;;;;;28.13;17.00;;;;;;;;;;5131670;27;20200;-78
2024/03/08 05:12:29;;;;;;;26.90;16.63;;;;;;;;;;5114764;27;20226;-77
2024/03/08 05:14:58;;;;;;;25.93;16.10;;;;;;;;;;5124303;27;20260;-78
2024/03/08 05:17:26;;;;;;;24.43;16.03;;;;;;;;;;5113437;28;20631;-78
2024/03/08 05:19:53;;;;;;;30.23;17.47;;;;;;;;;;5094159;28;20224;-79
2024/03/08 05:22:20;;;;;;;28.23;17.10;;;;;;;;;;5092954;28;20317;-77
2024/03/08 05:24:47;;;;;;;27.10;17.13;;;;;;;;;;5093017;28;20230;-78
2024/03/08 05:27:14;;;;;;;28.27;16.37;;;;;;;;;;5093967;28;20294;-76
2024/03/08 05:29:42;;;;;;;27.57;17.77;;;;;;;;;;5113373;28;20683;-78
2024/03/08 05:32:12;;;;;;;27.93;17.50;;;;;;;;;;5113284;28;20225;-79
2024/03/08 05:34:39;;;;;;;26.97;16.77;;;;;;;;;;5113194;28;20197;-77
2024/03/08 05:37:07;;;;;;;26.53;16.50;;;;;;;;;;5113455;28;20200;-78
2024/03/08 05:39:34;;;;;;;26.93;16.57;;;;;;;;;;5113023;28;20253;-77
2024/03/08 05:42:01;;;;;;;26.70;16.73;;;;;;;;;;5112695;28;20222;-78
2024/03/08 05:44:30;;;;;;;27.03;16.73;;;;;;;;;;5113616;28;20224;-77
2024/03/08 05:46:57;;;;;;;25.30;15.97;;;;;;;;;;5113119;28;20198;-78
2024/03/08 05:49:26;;;;;;;26.33;16.40;;;;;;;;;;5112826;28;20674;-77
2024/03/08 05:51:54;;;;;;;25.90;16.67;;;;;;;;;;5112630;28;20680;-77
2024/03/08 05:54:24;;;;;;;25.83;16.60;;;;;;;;;;5112818;28;20612;-79
2024/03/08 05:56:52;;;;;;;25.97;16.00;;;;;;;;;;5111906;28;20691;-78
2024/03/08 05:59:20;;;;;;;27.47;16.27;;;;;;;;;;5112219;28;20291;-78
2024/03/08 06:01:47;;;;;;;25.03;16.17;;;;;;;;;;5112682;28;20225;-77
2024/03/08 06:04:14;;;;;;;27.30;16.87;;;;;;;;;;5112321;28;20229;-79
2024/03/08 06:06:43;;;;;;;28.43;17.17;;;;;;;;;;5112504;28;20207;-77
2024/03/08 06:09:11;;;;;;;25.40;16.57;;;;;;;;;;5112795;28;20281;-79
2024/03/08 06:11:38;;;;;;;26.90;16.90;;;;;;;;;;5112265;28;20204;-77
2024/03/08 06:14:05;;;;;;;28.57;16.77;;;;;;;;;;5131996;27;20197;-78
2024/03/08 06:16:33;;;;;;;28.43;16.73;;;;;;;;;;5132573;27;20241;-77
2024/03/08 06:19:02;;;;;;;26.93;17.33;;;;;;;;;;5132805;27;20220;-77
2024/03/08 06:21:29;;;;;;;31.53;17.90;;;;;;;;;;5132563;27;20203;-77
2024/03/08 06:23:58;;;;;;;28.27;17.43;;;;;;;;;;5132216;27;20239;-78
2024/03/08 06:26:27;;;;;;;28.90;17.23;;;;;;;;;;5132972;27;20245;-78
2024/03/08 06:28:55;;;;;;;28.70;17.53;;;;;;;;;;5133247;27;20219;-78
2024/03/08 06:31:22;;;;;;;27.87;17.00;;;;;;;;;;5132664;27;20288;-78
2024/03/08 06:33:50;;;;;;;31.47;17.53;;;;;;;;;;5132657;27;20193;-78
2024/03/08 06:36:18;;;;;;;28.87;17.47;;;;;;;;;;5132846;27;20317;-78
2024/03/08 06:38:46;;;;;;;29.97;17.63;;;;;;;;;;5132516;27;20224;-78
2024/03/08 06:41:15;;;;;;;31.97;18.10;;;;;;;;;;5132513;27;20196;-77
2024/03/08 06:43:43;;;;;;;29.10;17.33;;;;;;;;;;5132717;27;20199;-78
2024/03/08 06:46:12;;;;;;;30.53;17.87;;;;;;;;;;5132721;27;20206;-79
2024/03/08 06:48:39;;;;;;;28.87;17.77;;;;;;;;;;5132744;27;20193;-79
2024/03/08 06:51:06;;;;;;;26.77;16.87;;;;;;;;;;5132385;27;20228;-79
2024/03/08 06:53:34;;;;;;;29.30;17.63;;;;;;;;;;5132144;27;20240;-79
2024/03/08 06:56:02;;;;;;;28.23;17.97;;;;;;;;;;5131661;27;20721;-79
2024/03/08 06:58:30;;;;;;;27.50;17.00;;;;;;;;;;5132836;27;20234;-78
2024/03/08 07:01:00;;;;;;;26.00;16.87;;;;;;;;;;5132690;27;20231;-78
2024/03/08 07:03:29;;;;;;;27.13;16.53;;;;;;;;;;5132389;27;20200;-78
2024/03/08 07:05:58;;;;;;;29.70;17.13;;;;;;;;;;5124134;27;20626;-80
2024/03/08 07:08:26;;;;;;;28.53;16.60;;;;;;;;;;5111266;28;20240;-79
2024/03/08 07:10:54;;;;;;;26.70;17.17;;;;;;;;;;5111329;28;20204;-79
2024/03/08 07:13:21;;;;;;;29.27;17.63;;;;;;;;;;5124371;27;20237;-78
2024/03/08 07:15:50;;;;;;;27.37;16.33;;;;;;;;;;5132407;27;20241;-78
2024/03/08 07:18:19;;;;;;;27.43;16.63;;;;;;;;;;5131892;28;20270;-79
2024/03/08 07:20:46;;;;;;;27.37;17.17;;;;;;;;;;5132444;28;20300;-77
2024/03/08 07:23:46;;;;;;;28.90;16.73;;;;;;;;;;5125614;28;20284;-79
2024/03/08 07:26:01;;;;;;;27.37;16.93;;;;;;;;;;5101317;28;20212;-78
2024/03/08 07:28:30;;;;;;;26.33;16.50;;;;;;;;;;5111904;28;20291;-78
2024/03/08 07:31:12;;;;;;;30.60;16.37;;;;;;;;;;5111394;28;20683;-79
2024/03/08 07:33:39;;;;;;;25.70;16.23;;;;;;;;;;5104873;28;20235;-77
2024/03/08 07:36:06;;;;;;;27.70;17.13;;;;;;;;;;5110928;28;20223;-76
2024/03/08 07:38:34;;;;;;;28.03;16.13;;;;;;;;;;5110731;28;20363;-75
2024/03/08 07:41:01;;;;;;;28.47;17.07;;;;;;;;;;5111091;28;20201;-78
2024/03/08 07:43:29;;;;;;;26.07;16.33;;;;;;;;;;5103064;28;20740;-79
2024/03/08 07:45:56;;;;;;;26.90;16.03;;;;;;;;;;5092355;28;20237;-77
2024/03/08 07:48:25;;;;;;;24.30;15.70;;;;;;;;;;5105936;28;20196;-79
2024/03/08 07:50:53;;;;;;;28.20;16.70;;;;;;;;;;5109202;28;20226;-77
2024/03/08 07:53:20;;;;;;;25.83;16.33;;;;;;;;;;5100303;28;20225;-78
2024/03/08 07:55:47;;;;;;;26.67;16.50;;;;;;;;;;5110884;28;20317;-76
2024/03/08 07:58:14;;;;;;;26.40;16.07;;;;;;;;;;5110984;28;20194;-77
2024/03/08 08:00:42;;;;;;;27.30;16.00;;;;;;;;;;5111235;28;20233;-78
2024/03/08 08:03:10;;;;;;;27.17;16.43;;;;;;;;;;5111649;28;20220;-78
2024/03/08 08:05:38;;;;;;;24.77;15.93;;;;;;;;;;5111149;28;20280;-79
2024/03/08 08:08:07;;;;;;;23.77;16.03;;;;;;;;;;5110077;28;20226;-77
2024/03/08 08:10:34;;;;;;;26.77;16.33;;;;;;;;;;5110982;28;20194;-78
2024/03/08 08:13:04;;;;;;;24.43;15.70;;;;;;;;;;5121631;28;20205;-77
2024/03/08 08:15:34;;;;;;;25.93;15.93;;;;;;;;;;5122815;28;20198;-77
2024/03/08 08:18:02;;;;;;;23.27;15.33;;;;;;;;;;5110604;28;20284;-81
2024/03/08 08:20:29;;;;;;;21.70;14.10;;;;;;;;;;5110588;28;20194;-79
2024/03/08 08:22:59;;;;;;;23.73;15.53;;;;;;;;;;5114845;28;20682;-81
2024/03/08 08:25:26;;;;;;;24.43;15.70;;;;;;;;;;5114503;28;20200;-81
2024/03/08 08:27:53;;;;;;;23.20;15.17;;;;;;;;;;5111589;28;20220;-79
2024/03/08 08:30:21;;;;;;;20.53;14.33;;;;;;;;;;5114563;28;20201;-79
2024/03/08 08:32:48;;;;;;;22.97;15.00;;;;;;;;;;5114435;28;20201;-80
2024/03/08 08:35:16;;;;;;;21.40;14.57;;;;;;;;;;5113785;28;20202;-80
2024/03/08 08:37:44;;;;;;;23.50;15.93;;;;;;;;;;5114472;28;20231;-79
2024/03/08 08:40:17;;;;;;;24.17;15.77;;;;;;;;;;5114072;28;20226;-78
2024/03/08 08:42:45;;;;;;;22.97;14.70;;;;;;;;;;5113996;28;20224;-80
2024/03/08 08:45:13;;;;;;;21.80;15.27;;;;;;;;;;5114588;28;20706;-79
2024/03/08 08:47:42;;;;;;;21.60;14.47;;;;;;;;;;5114030;28;20190;-81
2024/03/08 08:50:11;;;;;;;22.07;14.83;;;;;;;;;;5113628;28;20634;-82
2024/03/08 08:52:39;;;;;;;24.73;16.40;;;;;;;;;;5113849;28;20631;-82
2024/03/08 08:55:07;;;;;;;20.90;14.33;;;;;;;;;;5113773;28;20194;-81
2024/03/08 08:57:36;;;;;;;21.20;14.63;;;;;;;;;;5111280;27;20229;-82
2024/03/08 09:00:07;;;;;;;20.07;13.73;;;;;;;;;;5114367;27;20201;-82
2024/03/08 09:02:34;;;;;;;20.13;13.67;;;;;;;;;;5113398;28;20194;-81
2024/03/08 09:05:01;;;;;;;20.80;13.53;;;;;;;;;;5120457;27;20255;-82
2024/03/08 09:07:29;;;;;;;17.93;12.97;;;;;;;;;;5113141;28;20198;-83
2024/03/08 09:09:58;;;;;;;19.90;13.07;;;;;;;;;;5113382;28;20259;-83
2024/03/08 09:12:25;;;;;;;20.47;13.70;;;;;;;;;;5119207;27;20200;-83
2024/03/08 09:14:54;;;;;;;17.97;13.03;;;;;;;;;;5110824;27;20733;-84
2024/03/08 09:17:22;;;;;;;17.27;12.40;;;;;;;;;;5111593;27;20671;-82
2024/03/08 09:19:49;;;;;;;17.27;12.03;;;;;;;;;;5112751;28;20217;-82
2024/03/08 09:22:16;;;;;;;16.73;11.93;;;;;;;;;;5113060;28;20617;-81
2024/03/08 09:24:44;;;;;;;17.97;12.23;;;;;;;;;;5109657;28;20222;-81
2024/03/08 09:27:11;;;;;;;17.40;11.83;;;;;;;;;;5102742;28;20285;-81
2024/03/08 09:29:38;;;;;;;19.70;12.23;;;;;;;;;;5113808;28;20593;-84
2024/03/08 09:32:07;;;;;;;19.00;12.43;;;;;;;;;;5112889;28;20230;-83
2024/03/08 09:34:34;;;;;;;19.67;11.93;;;;;;;;;;5113147;28;20239;-82
2024/03/08 09:37:04;;;;;;;15.90;11.60;;;;;;;;;;5113176;28;20843;-82
2024/03/08 09:39:33;;;;;;;15.60;11.23;;;;;;;;;;5113723;28;20196;-82
2024/03/08 09:42:00;;;;;;;16.57;11.57;;;;;;;;;;5113329;28;20286;-82
2024/03/08 09:44:28;;;;;;;16.43;11.57;;;;;;;;;;5113549;28;20193;-82
2024/03/08 09:46:58;;;;;;;15.83;11.67;;;;;;;;;;5113298;28;20644;-82
2024/03/08 09:49:26;;;;;;;15.73;11.33;;;;;;;;;;5113276;28;20194;-82
2024/03/08 09:51:55;;;;;;;17.37;11.20;;;;;;;;;;5113334;28;20256;-82
2024/03/08 09:54:24;;;;;;;16.43;11.30;;;;;;;;;;5112981;28;20204;-83
2024/03/08 09:56:52;;;;;;;16.00;10.87;;;;;;;;;;5112994;28;20261;-80
2024/03/08 10:02:04;;;;;;;15.50;10.47;;;;;;;;;;5113077;28;20308;-82
2024/03/08 10:04:33;;;;;;;14.43;10.27;;;;;;;;;;5113011;28;20254;-83
2024/03/08 10:07:01;;;;;;;14.77;10.20;;;;;;;;;;5112456;28;20672;-82
2024/03/08 10:09:28;;;;;;;14.87;10.63;;;;;;;;;;5113518;28;20250;-83
2024/03/08 10:11:57;;;;;;;15.13;10.37;;;;;;;;;;5113458;27;20743;-82
2024/03/08 10:14:26;;;;;;;14.77;10.30;;;;;;;;;;5133061;27;20222;-83
2024/03/08 10:16:53;;;;;;;13.83;9.83;;;;;;;;;;5133200;27;20235;-82
2024/03/08 10:19:21;;;;;;;13.33;9.83;;;;;;;;;;5133206;27;20204;-83
2024/03/08 10:21:53;;;;;;;12.90;9.27;;;;;;;;;;5133056;27;20204;-83
2024/03/08 10:24:20;;;;;;;14.33;10.60;;;;;;;;;;5133069;27;20197;-82
2024/03/08 10:26:47;;;;;;;13.87;9.97;;;;;;;;;;5133381;27;20193;-83
2024/03/08 10:29:17;;;;;;;17.37;11.27;;;;;;;;;;5133056;27;20196;-83
2024/03/08 10:31:45;;;;;;;16.00;10.97;;;;;;;;;;5132740;27;20284;-83
2024/03/08 10:34:12;;;;;;;12.70;9.63;;;;;;;;;;5132903;27;20726;-83
2024/03/08 10:36:41;;;;;;;12.87;9.83;;;;;;;;;;5133111;27;20213;-83
2024/03/08 10:39:14;;;;;;;15.33;10.27;;;;;;;;;;5132628;27;20284;-82
2024/03/08 10:41:43;;;;;;;14.53;9.37;;;;;;;;;;5132842;27;20216;-83
2024/03/08 10:44:17;;;;;;;12.63;8.47;;;;;;;;;;5132078;27;20193;-82
2024/03/08 10:46:54;;;;;;;12.37;8.83;;;;;;;;;;5132095;27;20640;-82
2024/03/08 10:49:23;;;;;;;11.47;8.17;;;;;;;;;;5132437;27;20229;-83
2024/03/08 10:51:52;;;;;;;12.73;9.03;;;;;;;;;;5132564;27;20212;-83
2024/03/08 10:54:22;;;;;;;14.00;8.40;;;;;;;;;;5132616;27;20663;-83
2024/03/08 10:56:50;;;;;;;9.93;7.40;;;;;;;;;;5132362;27;20255;-83
2024/03/08 10:59:18;;;;;;;10.63;8.13;;;;;;;;;;5132506;27;20598;-81
2024/03/08 11:01:46;;;;;;;13.90;9.40;;;;;;;;;;5132287;27;20196;-84
2024/03/08 11:04:13;;;;;;;14.93;9.73;;;;;;;;;;5133081;27;20204;-83
2024/03/08 11:06:45;;;;;;;13.70;9.77;;;;;;;;;;5132173;27;20193;-84
2024/03/08 11:09:29;;;;;;;13.57;9.13;;;;;;;;;;5132259;27;20204;-84
2024/03/08 11:12:11;;;;;;;11.63;8.13;;;;;;;;;;5132273;27;20199;-83
2024/03/08 11:14:48;;;;;;;11.13;7.67;;;;;;;;;;5130973;27;20587;-83
2024/03/08 11:17:17;;;;;;;11.17;7.53;;;;;;;;;;5131993;27;20276;-83
2024/03/08 11:19:48;;;;;;;8.10;6.40;;;;;;;;;;5132458;28;20199;-82
2024/03/08 11:22:23;;;;;;;9.00;6.27;;;;;;;;;;5132430;27;20587;-83
2024/03/08 11:24:50;;;;;;;8.20;6.07;;;;;;;;;;5132259;28;20224;-82
2024/03/08 11:27:18;;;;;;;10.20;6.50;;;;;;;;;;5131879;27;20242;-82
2024/03/08 11:29:46;;;;;;;8.93;6.00;;;;;;;;;;5128296;27;20205;-82
2024/03/08 11:32:14;;;;;;;11.03;6.60;;;;;;;;;;5093424;28;20202;-82
2024/03/08 11:34:43;;;;;;;9.73;6.20;;;;;;;;;;5091003;28;20237;-83
2024/03/08 11:37:14;;;;;;;9.33;6.10;;;;;;;;;;5091004;28;20218;-83
2024/03/08 11:39:42;;;;;;;8.57;5.60;;;;;;;;;;5089356;28;20259;-81
2024/03/08 11:42:11;;;;;;;14.83;6.80;;;;;;;;;;5087954;28;20198;-80
2024/03/08 11:44:42;;;;;;;9.00;5.80;;;;;;;;;;5087593;28;20194;-81
2024/03/08 11:47:11;;;;;;;10.10;6.10;;;;;;;;;;5088113;28;20774;-82
2024/03/08 11:49:39;;;;;;;7.73;5.33;;;;;;;;;;5087957;28;20202;-82
2024/03/08 11:52:06;;;;;;;9.13;6.23;;;;;;;;;;5087267;28;20297;-81
2024/03/08 11:54:34;;;;;;;11.23;6.43;;;;;;;;;;5087460;28;20190;-81
2024/03/08 11:57:01;;;;;;;9.80;5.77;;;;;;;;;;5089975;28;20326;-81
2024/03/08 11:59:30;;;;;;;9.23;6.17;;;;;;;;;;5091428;28;20863;-82
2024/03/08 12:02:02;;;;;;;8.13;5.50;;;;;;;;;;5091364;28;20680;-80
2024/03/08 12:04:31;;;;;;;8.97;5.63;;;;;;;;;;4739918;28;9999649;-80
2024/03/08 12:07:02;;;;;;;8.80;5.60;;;;;;;;;;5092045;28;20228;-81
2024/03/08 12:09:29;;;;;;;9.80;6.10;;;;;;;;;;5091782;28;20194;-80
2024/03/08 12:11:57;;;;;;;8.27;5.97;;;;;;;;;;5093687;27;20190;-81
2024/03/08 12:14:24;;;;;;;10.10;5.63;;;;;;;;;;5131947;27;20742;-81
2024/03/08 12:16:53;;;;;;;9.20;6.03;;;;;;;;;;5131631;27;20232;-81
2024/03/08 12:19:20;;;;;;;10.47;5.73;;;;;;;;;;5132171;27;20575;-81
2024/03/08 12:21:49;;;;;;;7.53;5.67;;;;;;;;;;5131971;27;20666;-79
2024/03/08 12:24:19;;;;;;;10.73;6.57;;;;;;;;;;5131940;27;20762;-82
2024/03/08 12:26:48;;;;;;;8.87;6.03;;;;;;;;;;5131624;27;20235;-82
2024/03/08 12:29:20;;;;;;;10.03;5.90;;;;;;;;;;5131899;27;20262;-81
2024/03/08 12:31:47;;;;;;;8.13;5.77;;;;;;;;;;5132394;27;20658;-81
2024/03/08 12:34:15;;;;;;;7.63;6.17;;;;;;;;;;5131929;27;20557;-81
2024/03/08 12:36:47;;;;;;;7.57;5.73;;;;;;;;;;5131730;27;20296;-81
2024/03/08 12:39:17;;;;;;;8.73;6.00;;;;;;;;;;5131622;27;20695;-81
2024/03/08 12:41:46;;;;;;;8.57;6.10;;;;;;;;;;5131025;27;20726;-82
2024/03/08 12:44:13;;;;;;;8.23;6.00;;;;;;;;;;5128690;27;20193;-83
2024/03/08 12:46:41;;;;;;;10.33;5.93;;;;;;;;;;5112683;27;20206;-84
2024/03/08 12:49:11;;;;;;;10.23;6.27;;;;;;;;;;5114127;28;20296;-83
2024/03/08 12:51:38;;;;;;;10.30;6.65;;;;;;;;;;5109774;27;20296;-83
2024/03/08 12:54:07;;;;;;;9.07;6.07;;;;;;;;;;5112345;28;20690;-80
2024/03/08 12:56:37;;;;;;;10.10;5.95;;;;;;;;;;5113469;28;20656;-82
2024/03/08 12:59:05;;;;;;;8.68;5.85;;;;;;;;;;5111978;28;20221;-83
2024/03/08 13:01:33;;;;;;;8.35;5.80;;;;;;;;;;5112218;28;20198;-81
2024/03/08 13:04:01;;;;;;;8.43;5.80;;;;;;;;;;5113460;27;20646;-83
2024/03/08 13:06:30;;;;;;;7.13;5.68;;;;;;;;;;5112990;28;20541;-82
2024/03/08 13:08:58;;;;;;;9.13;5.80;;;;;;;;;;5113434;28;20218;-83
2024/03/08 13:11:26;;;;;;;10.40;6.80;;;;;;;;;;5110374;28;20202;-83
2024/03/08 13:13:55;;;;;;;8.30;6.45;;;;;;;;;;5106705;27;20660;-82
2024/03/08 13:16:22;;;;;;;8.18;6.07;;;;;;;;;;5104188;28;20221;-83
2024/03/08 13:18:50;;;;;;;9.55;6.13;;;;;;;;;;5102976;28;20187;-83
2024/03/08 13:21:19;;;;;;;9.85;6.55;;;;;;;;;;5107654;28;20638;-83
2024/03/08 13:23:49;;;;;;;8.43;6.47;;;;;;;;;;5113953;27;20194;-81
2024/03/08 13:26:17;;;;;;;8.13;6.00;;;;;;;;;;5106916;27;20207;-82
2024/03/08 13:28:45;;;;;;;8.23;6.00;;;;;;;;;;5110476;28;20265;-83
2024/03/08 13:31:14;;;;;;;8.87;6.43;;;;;;;;;;5109417;28;20196;-82
2024/03/08 13:33:46;;;;;;;10.48;5.95;;;;;;;;;;5111614;28;20312;-82
2024/03/08 13:36:15;;;;;;;8.60;6.47;;;;;;;;;;5112993;28;20197;-83
2024/03/08 13:38:44;;;;;;;7.10;6.10;;;;;;;;;;5112898;28;20671;-83
2024/03/08 13:41:15;;;;;;;8.80;5.90;;;;;;;;;;5112220;28;20198;-82
2024/03/08 13:43:42;;;;;;;10.27;6.70;;;;;;;;;;5108722;28;20198;-83
2024/03/08 13:46:10;;;;;;;10.47;5.90;;;;;;;;;;5112726;28;20194;-83
2024/03/08 13:48:39;;;;;;;6.97;5.40;;;;;;;;;;5099260;28;20226;-82
2024/03/08 13:51:08;;;;;;;11.77;7.20;;;;;;;;;;5109897;28;20198;-83
2024/03/08 13:53:35;;;;;;;8.70;6.60;;;;;;;;;;5112627;28;20210;-83
2024/03/08 13:56:03;;;;;;;9.70;6.20;;;;;;;;;;5112657;28;20208;-82
2024/03/08 13:58:31;;;;;;;8.23;5.97;;;;;;;;;;5113371;28;20555;-81
2024/03/08 14:00:58;;;;;;;10.37;6.53;;;;;;;;;;5113131;28;20249;-83
2024/03/08 14:03:26;;;;;;;8.67;6.03;;;;;;;;;;5112930;28;20733;-83
2024/03/08 14:05:55;;;;;;;9.13;6.20;;;;;;;;;;5112876;28;20193;-83
2024/03/08 14:08:22;;;;;;;9.40;6.80;;;;;;;;;;5112415;28;20230;-83
2024/03/08 14:10:51;;;;;;;9.50;6.27;;;;;;;;;;5112614;28;20542;-82
2024/03/08 14:13:18;;;;;;;9.20;6.23;;;;;;;;;;5125558;27;20205;-83
2024/03/08 14:15:46;;;;;;;9.43;6.23;;;;;;;;;;5133305;27;20575;-82
2024/03/08 14:18:14;;;;;;;7.67;6.03;;;;;;;;;;5132595;27;20249;-82
2024/03/08 14:20:41;;;;;;;8.90;6.43;;;;;;;;;;5133014;27;20340;-82
2024/03/08 14:23:12;;;;;;;8.83;5.80;;;;;;;;;;5133148;27;20726;-82
2024/03/08 14:25:39;;;;;;;7.93;6.10;;;;;;;;;;5133467;27;20204;-82
2024/03/08 14:28:08;;;;;;;10.13;6.43;;;;;;;;;;5133252;27;20634;-82
2024/03/08 14:30:37;;;;;;;8.20;6.40;;;;;;;;;;5132830;27;20670;-82
2024/03/08 14:33:08;;;;;;;9.67;6.73;;;;;;;;;;5133077;27;20245;-83